Time;durP1;ratioP1;P1;durP2;ratioP2;P2;SDS_P1;SDS_P2;PMS_P1;PMS_P2;Temp;Humidity;BMP_temperature;BMP_pressure;BME280_temperature;BME280_humidity;BME280_pressure;Samples;Min_cycle;Max_cycle;Signal;HPM_P1;HPM_P2
2020/12/06 00:00:35;;;;;;;9.93;9.20;;;;;20.50;99077.00;;;;2087298;28;20600;-46
2020/12/06 00:01:36;;;;;;;10.27;9.27;;;;;20.50;99076.00;;;;2087397;28;20221;-46
2020/12/06 00:02:36;;;;;;;10.20;7.95;;;;;20.50;99075.00;;;;2086863;28;20268;-48
2020/12/06 00:03:37;;;;;;;9.57;8.77;;;;;20.50;99077.00;;;;2087678;28;20264;-47
2020/12/06 00:04:37;;;;;;;9.47;8.67;;;;;20.50;99067.00;;;;2086749;28;20299;-46
2020/12/06 00:05:38;;;;;;;10.20;9.30;;;;;20.50;99079.00;;;;2087669;28;20614;-46
2020/12/06 00:06:38;;;;;;;9.60;8.70;;;;;20.50;99072.00;;;;2086950;28;20690;-46
2020/12/06 00:07:41;;;;;;;9.20;8.40;;;;;20.50;99066.00;;;;2087218;28;20218;-48
2020/12/06 00:08:42;;;;;;;8.52;7.82;;;;;20.50;99067.00;;;;2087300;28;20233;-46
2020/12/06 00:09:42;;;;;;;9.50;8.60;;;;;20.50;99061.00;;;;2087404;28;20214;-46
2020/12/06 00:10:42;;;;;;;9.63;8.70;;;;;20.40;99054.00;;;;2087266;28;20293;-45
2020/12/06 00:11:43;;;;;;;9.83;8.93;;;;;20.40;99049.00;;;;2086997;28;20224;-49
2020/12/06 00:12:44;;;;;;;10.07;9.13;;;;;20.50;99052.00;;;;2087438;28;20229;-46
2020/12/06 00:13:44;;;;;;;8.97;8.27;;;;;20.50;99049.00;;;;2087383;28;20855;-46
2020/12/06 00:14:44;;;;;;;9.97;9.07;;;;;20.50;99034.00;;;;2086648;28;20218;-48
2020/12/06 00:15:45;;;;;;;8.47;7.67;;;;;20.40;99031.00;;;;2087407;28;20632;-47
2020/12/06 00:16:48;;;;;;;9.33;8.53;;;;;20.50;99025.00;;;;2087374;28;20571;-46
2020/12/06 00:17:48;;;;;;;8.60;7.90;;;;;20.50;99021.00;;;;2086913;28;20736;-46
2020/12/06 00:18:48;;;;;;;8.47;7.73;;;;;20.50;99017.00;;;;2087419;28;20275;-45
2020/12/06 00:19:49;;;;;;;9.80;8.80;;;;;20.40;99013.00;;;;2090323;28;20255;-45
2020/12/06 00:20:49;;;;;;;9.80;8.90;;;;;20.50;99003.00;;;;2092273;28;20218;-48
2020/12/06 00:21:50;;;;;;;9.13;8.33;;;;;20.40;98993.00;;;;2091773;28;20211;-47
2020/12/06 00:22:50;;;;;;;8.50;7.70;;;;;20.40;98993.00;;;;2091424;28;20226;-46
2020/12/06 00:23:50;;;;;;;8.83;8.03;;;;;20.40;98984.00;;;;2087419;28;20229;-45
2020/12/06 00:24:51;;;;;;;9.47;8.67;;;;;20.40;98986.00;;;;2077255;28;20696;-44
2020/12/06 00:25:51;;;;;;;8.90;8.10;;;;;20.40;98982.00;;;;2094645;28;20225;-47
2020/12/06 00:26:53;;;;;;;9.27;8.47;;;;;20.40;98987.00;;;;2094651;28;20222;-45
2020/12/06 00:27:53;;;;;;;9.07;8.30;;;;;20.40;98992.00;;;;2095357;28;20271;-45
2020/12/06 00:28:54;;;;;;;8.63;7.93;;;;;20.40;98996.00;;;;2095366;28;20295;-47
2020/12/06 00:29:54;;;;;;;8.30;7.60;;;;;20.40;98996.00;;;;2095585;28;20214;-44
2020/12/06 00:30:54;;;;;;;8.93;8.23;;;;;20.40;99005.00;;;;2095416;28;20210;-46
2020/12/06 00:31:55;;;;;;;8.67;7.93;;;;;20.40;99007.00;;;;2095543;28;20210;-45
2020/12/06 00:32:55;;;;;;;8.63;7.83;;;;;20.40;99014.00;;;;2095635;28;20241;-46
2020/12/06 00:33:55;;;;;;;8.50;7.80;;;;;20.40;99015.00;;;;2095619;28;20855;-47
2020/12/06 00:34:56;;;;;;;8.50;7.80;;;;;20.30;99020.00;;;;2094195;28;20644;-47
2020/12/06 00:35:56;;;;;;;8.40;7.63;;;;;20.30;99022.00;;;;2094551;28;20301;-46
2020/12/06 00:36:56;;;;;;;9.27;8.47;;;;;20.40;99020.00;;;;2095051;28;20218;-45
2020/12/06 00:37:57;;;;;;;8.30;7.50;;;;;20.30;99030.00;;;;2095206;28;20220;-45
2020/12/06 00:38:57;;;;;;;8.80;8.00;;;;;20.40;99018.00;;;;2095594;28;20210;-44
2020/12/06 00:39:58;;;;;;;8.60;7.90;;;;;20.40;99020.00;;;;2095232;28;20308;-45
2020/12/06 00:40:58;;;;;;;8.37;7.67;;;;;20.40;99014.00;;;;2095038;28;20225;-47
2020/12/06 00:41:58;;;;;;;8.37;7.77;;;;;20.40;99002.00;;;;2091413;28;20218;-45
2020/12/06 00:42:58;;;;;;;9.03;8.23;;;;;20.30;98997.00;;;;2086986;28;20696;-47
2020/12/06 00:43:59;;;;;;;8.50;7.73;;;;;20.40;98997.00;;;;2087251;28;20683;-45
2020/12/06 00:45:00;;;;;;;7.37;6.83;;;;;20.40;98991.00;;;;2086581;28;20208;-45
2020/12/06 00:46:00;;;;;;;8.67;8.00;;;;;20.30;98992.00;;;;2087310;28;20222;-47
2020/12/06 00:47:00;;;;;;;8.37;7.67;;;;;20.40;98987.00;;;;2087054;28;20284;-46
2020/12/06 00:48:01;;;;;;;8.60;7.90;;;;;20.30;98995.00;;;;2086806;28;20202;-45
2020/12/06 00:49:01;;;;;;;9.20;8.40;;;;;20.30;98991.00;;;;2086896;28;20213;-45
2020/12/06 00:50:03;;;;;;;7.90;7.30;;;;;20.30;98991.00;;;;2093776;28;20210;-46
2020/12/06 00:51:03;;;;;;;9.60;8.68;;;;;20.30;98989.00;;;;2091790;28;20212;-45
2020/12/06 00:52:04;;;;;;;8.83;8.13;;;;;20.30;98986.00;;;;2091326;28;20207;-46
2020/12/06 00:53:04;;;;;;;8.67;7.97;;;;;20.30;98994.00;;;;2090503;28;20253;-47
2020/12/06 00:54:04;;;;;;;8.10;7.50;;;;;20.30;98989.00;;;;2087192;28;20226;-47
2020/12/06 00:55:05;;;;;;;9.63;8.83;;;;;20.30;98999.00;;;;2086436;28;20215;-46
2020/12/06 00:56:05;;;;;;;8.13;7.43;;;;;20.30;98985.00;;;;2087126;28;20261;-46
2020/12/06 00:57:05;;;;;;;7.47;6.87;;;;;20.30;98980.00;;;;2087084;28;20211;-45
2020/12/06 00:58:06;;;;;;;8.33;7.57;;;;;20.30;98983.00;;;;2086589;28;20214;-46
2020/12/06 00:59:06;;;;;;;8.50;7.80;;;;;20.30;98983.00;;;;2087025;28;20294;-46
2020/12/06 01:00:07;;;;;;;8.63;7.93;;;;;20.30;98978.00;;;;2086308;28;20688;-46
2020/12/06 01:01:08;;;;;;;8.40;7.70;;;;;20.30;98982.00;;;;2087123;28;20215;-46
2020/12/06 01:02:11;;;;;;;8.77;7.97;;;;;20.30;98985.00;;;;2087113;28;20570;-46
2020/12/06 01:03:11;;;;;;;11.07;8.43;;;;;20.30;98975.00;;;;2085897;28;20233;-46
2020/12/06 01:04:11;;;;;;;8.63;7.93;;;;;20.30;98969.00;;;;2087204;28;20660;-46
2020/12/06 01:05:12;;;;;;;9.03;8.23;;;;;20.30;98974.00;;;;2086415;28;20221;-45
2020/12/06 01:06:16;;;;;;;9.00;8.20;;;;;20.30;98988.00;;;;2087221;28;20232;-46
2020/12/06 01:07:16;;;;;;;9.60;8.73;;;;;20.10;98985.00;;;;2092261;28;20286;-46
2020/12/06 01:08:16;;;;;;;9.20;8.40;;;;;20.10;98985.00;;;;2094458;28;20609;-46
2020/12/06 01:09:17;;;;;;;8.50;7.80;;;;;20.10;98988.00;;;;2088539;28;20631;-47
2020/12/06 01:10:17;;;;;;;9.10;8.40;;;;;20.10;98993.00;;;;2085760;28;20697;-47
2020/12/06 01:11:17;;;;;;;10.07;9.13;;;;;20.10;98997.00;;;;2086869;28;20214;-46
2020/12/06 01:12:18;;;;;;;9.03;8.13;;;;;20.00;99000.00;;;;2086917;28;20218;-46
2020/12/06 01:13:19;;;;;;;11.83;8.17;;;;;20.00;98999.00;;;;2086804;28;20221;-45
2020/12/06 01:14:19;;;;;;;8.53;7.83;;;;;20.00;99002.00;;;;2087027;28;20218;-47
2020/12/06 01:15:19;;;;;;;8.90;8.20;;;;;20.00;98996.00;;;;2086250;28;20415;-47
2020/12/06 01:16:20;;;;;;;9.30;8.50;;;;;20.00;98983.00;;;;2086928;28;20224;-46
2020/12/06 01:17:20;;;;;;;8.53;7.90;;;;;20.00;98992.00;;;;2086794;28;20214;-47
2020/12/06 01:18:20;;;;;;;8.40;7.70;;;;;20.00;98994.00;;;;2086922;28;20815;-46
2020/12/06 01:19:21;;;;;;;8.80;7.90;;;;;19.90;98996.00;;;;2088504;28;20238;-46
2020/12/06 01:20:21;;;;;;;8.77;7.97;;;;;19.90;99008.00;;;;2095283;28;20281;-46
2020/12/06 01:21:21;;;;;;;8.70;7.97;;;;;19.90;98997.00;;;;2091599;28;20209;-48
2020/12/06 01:22:22;;;;;;;9.33;8.60;;;;;19.90;98981.00;;;;2091198;28;20705;-47
2020/12/06 01:23:22;;;;;;;8.87;8.27;;;;;19.90;98971.00;;;;2087445;28;20766;-46
2020/12/06 01:24:22;;;;;;;8.93;8.23;;;;;19.90;98974.00;;;;2087111;28;21398;-46
2020/12/06 01:25:23;;;;;;;8.63;7.83;;;;;19.90;98984.00;;;;2086242;28;20232;-48
2020/12/06 01:26:23;;;;;;;9.80;9.00;;;;;19.90;98981.00;;;;2086197;28;20984;-49
2020/12/06 01:27:23;;;;;;;9.00;8.20;;;;;19.90;99000.00;;;;2086644;28;20932;-49
2020/12/06 01:28:24;;;;;;;9.07;8.27;;;;;19.90;98997.00;;;;2086631;28;20241;-46
2020/12/06 01:29:24;;;;;;;9.30;8.50;;;;;19.90;99002.00;;;;2087007;28;20290;-46
2020/12/06 01:30:24;;;;;;;8.83;8.03;;;;;19.90;98998.00;;;;2086892;28;20289;-47
2020/12/06 01:31:25;;;;;;;9.00;8.10;;;;;19.90;98992.00;;;;2086956;28;20217;-46
2020/12/06 01:32:25;;;;;;;9.13;8.33;;;;;19.80;98991.00;;;;2094479;28;20205;-47
2020/12/06 01:33:25;;;;;;;8.67;7.87;;;;;19.80;98979.00;;;;2094981;28;20210;-46
2020/12/06 01:34:26;;;;;;;8.50;7.80;;;;;19.80;98986.00;;;;2087549;28;20232;-46
2020/12/06 01:35:26;;;;;;;8.50;7.80;;;;;19.80;98985.00;;;;2086371;28;20210;-46
2020/12/06 01:36:26;;;;;;;9.27;8.47;;;;;19.80;98989.00;;;;2086716;28;20206;-46
2020/12/06 01:37:27;;;;;;;9.30;8.60;;;;;19.80;98997.00;;;;2086505;28;20301;-47
2020/12/06 01:38:27;;;;;;;7.77;7.10;;;;;19.80;98987.00;;;;2086651;28;20216;-46
2020/12/06 01:39:27;;;;;;;8.93;8.17;;;;;19.80;98991.00;;;;2086754;28;20275;-46
2020/12/06 01:40:28;;;;;;;8.63;7.93;;;;;19.80;98985.00;;;;2094150;28;20206;-46
2020/12/06 01:41:28;;;;;;;8.60;8.00;;;;;19.80;98987.00;;;;2094400;28;20275;-47
2020/12/06 01:42:28;;;;;;;9.13;8.33;;;;;19.80;98982.00;;;;2087034;28;20281;-46
2020/12/06 01:43:29;;;;;;;9.10;8.30;;;;;19.70;98977.00;;;;2086787;28;20205;-46
2020/12/06 01:44:29;;;;;;;8.63;7.93;;;;;19.80;98994.00;;;;2086790;28;20213;-47
2020/12/06 01:45:29;;;;;;;8.63;7.90;;;;;19.70;98991.00;;;;2094329;28;20217;-45
2020/12/06 01:46:30;;;;;;;8.87;8.10;;;;;19.80;98985.00;;;;2086330;28;20293;-45
2020/12/06 01:47:31;;;;;;;8.60;7.90;;;;;19.70;98984.00;;;;2086614;28;20638;-46
2020/12/06 01:48:31;;;;;;;8.33;7.63;;;;;19.80;98971.00;;;;2086107;28;20445;-45
2020/12/06 01:49:37;;;;;;;8.73;8.03;;;;;19.80;98971.00;;;;2088930;28;20276;-46
2020/12/06 01:50:38;;;;;;;8.75;8.05;;;;;19.80;98973.00;;;;2093701;28;20266;-46
2020/12/06 01:51:38;;;;;;;8.73;8.00;;;;;19.80;98984.00;;;;2091190;28;20359;-46
2020/12/06 01:52:40;;;;;;;8.30;7.60;;;;;19.70;98978.00;;;;2091352;28;20210;-47
2020/12/06 01:53:41;;;;;;;9.10;8.32;;;;;19.70;98973.00;;;;2078004;28;20243;-48
2020/12/06 01:54:41;;;;;;;8.70;7.90;;;;;19.70;98967.00;;;;2079166;28;20225;-46
2020/12/06 01:55:41;;;;;;;7.97;7.33;;;;;19.70;98966.00;;;;2092593;28;20671;-46
2020/12/06 01:56:42;;;;;;;8.93;8.23;;;;;19.70;98966.00;;;;2092519;28;20297;-46
2020/12/06 01:57:42;;;;;;;8.87;8.17;;;;;19.70;98968.00;;;;2090839;28;20380;-45
2020/12/06 01:58:42;;;;;;;8.60;7.90;;;;;19.70;98957.00;;;;2091421;28;20255;-46
2020/12/06 01:59:43;;;;;;;9.00;8.30;;;;;19.70;98962.00;;;;2086489;28;20232;-47
2020/12/06 02:00:43;;;;;;;8.73;8.03;;;;;19.70;98957.00;;;;2086559;28;20294;-48
2020/12/06 02:02:00;;;;;;;8.23;7.53;;;;;19.70;98948.00;;;;2086596;28;20309;-48
2020/12/06 02:03:01;;;;;;;7.97;7.38;;;;;19.70;98958.00;;;;2086454;28;20909;-47
2020/12/06 02:04:01;;;;;;;7.90;7.30;;;;;19.70;98957.00;;;;2086863;28;20240;-47
2020/12/06 02:05:03;;;;;;;8.63;7.93;;;;;19.70;98956.00;;;;2085325;28;20223;-46
2020/12/06 02:06:04;;;;;;;8.75;8.05;;;;;19.70;98968.00;;;;2082564;28;20299;-47
2020/12/06 02:07:04;;;;;;;8.90;8.10;;;;;19.70;98971.00;;;;2093957;28;20264;-47
2020/12/06 02:08:05;;;;;;;9.20;8.50;;;;;19.60;98968.00;;;;2094155;28;20644;-46
2020/12/06 02:09:05;;;;;;;7.80;7.20;;;;;19.60;98968.00;;;;2089464;28;20308;-45
2020/12/06 02:10:05;;;;;;;8.47;7.77;;;;;19.60;98959.00;;;;2084712;28;20215;-47
2020/12/06 02:11:06;;;;;;;8.30;7.60;;;;;19.60;98967.00;;;;2077854;28;20305;-46
2020/12/06 02:12:09;;;;;;;8.23;7.53;;;;;19.60;98976.00;;;;2083352;28;20708;-46
2020/12/06 02:13:09;;;;;;;9.10;8.30;;;;;19.70;98982.00;;;;2088426;28;20224;-47
2020/12/06 02:14:11;;;;;;;8.40;7.70;;;;;19.60;98993.00;;;;2094822;28;20206;-46
2020/12/06 02:15:11;;;;;;;8.35;7.63;;;;;19.60;98989.00;;;;2093749;28;20206;-46
2020/12/06 02:16:14;;;;;;;8.63;7.93;;;;;19.60;98992.00;;;;2094352;28;20301;-47
2020/12/06 02:17:14;;;;;;;9.38;8.57;;;;;19.70;98985.00;;;;2094605;28;20210;-47
2020/12/06 02:18:15;;;;;;;7.93;7.30;;;;;19.70;98994.00;;;;2094894;28;20682;-47
2020/12/06 02:19:15;;;;;;;9.23;8.43;;;;;19.70;99000.00;;;;2094461;28;20725;-46
2020/12/06 02:20:16;;;;;;;8.93;8.20;;;;;19.60;99003.00;;;;2087725;28;20251;-47
2020/12/06 02:21:16;;;;;;;8.67;7.97;;;;;19.60;99019.00;;;;2086816;28;20223;-48
2020/12/06 02:22:16;;;;;;;8.90;8.10;;;;;19.60;99011.00;;;;2086594;28;20586;-46
2020/12/06 02:23:17;;;;;;;8.17;7.47;;;;;19.60;99010.00;;;;2086558;28;20240;-45
2020/12/06 02:24:17;;;;;;;8.30;7.60;;;;;19.60;99016.00;;;;2086768;28;20560;-45
2020/12/06 02:25:18;;;;;;;8.10;7.47;;;;;19.60;99013.00;;;;2089073;28;20210;-47
2020/12/06 02:26:18;;;;;;;8.27;7.57;;;;;19.60;99017.00;;;;2096250;28;20225;-46
2020/12/06 02:27:18;;;;;;;8.43;7.73;;;;;19.60;99026.00;;;;2092587;28;20220;-46
2020/12/06 02:28:19;;;;;;;7.83;7.17;;;;;19.60;99013.00;;;;2092104;28;20220;-46
2020/12/06 02:29:19;;;;;;;7.90;7.30;;;;;19.60;99016.00;;;;2089728;28;20275;-46
2020/12/06 02:30:21;;;;;;;8.20;7.60;;;;;19.60;99021.00;;;;2087938;28;20287;-46
2020/12/06 02:31:21;;;;;;;9.15;8.40;;;;;19.60;99014.00;;;;2095582;28;20217;-45
2020/12/06 02:32:22;;;;;;;8.60;7.80;;;;;19.60;99019.00;;;;2096567;28;20209;-47
2020/12/06 02:33:22;;;;;;;8.07;7.43;;;;;19.50;99019.00;;;;2096572;28;20225;-47
2020/12/06 02:34:22;;;;;;;8.90;8.10;;;;;19.50;99014.00;;;;2096393;28;20224;-46
2020/12/06 02:35:23;;;;;;;8.30;7.60;;;;;19.50;99019.00;;;;2095923;28;20688;-48
2020/12/06 02:36:23;;;;;;;8.40;7.63;;;;;19.50;99017.00;;;;2096292;28;20255;-47
2020/12/06 02:37:23;;;;;;;8.20;7.50;;;;;19.60;99018.00;;;;2096305;28;20266;-47
2020/12/06 02:38:24;;;;;;;7.77;7.17;;;;;19.50;99004.00;;;;2096402;28;20716;-46
2020/12/06 02:39:24;;;;;;;9.00;8.27;;;;;19.50;99006.00;;;;2096256;28;20213;-47
2020/12/06 02:40:24;;;;;;;7.93;7.27;;;;;19.50;98990.00;;;;2096051;28;20851;-45
2020/12/06 02:41:44;;;;;;;8.80;8.10;;;;;19.50;98991.00;;;;2096245;28;20281;-46
2020/12/06 02:42:45;;;;;;;7.80;7.18;;;;;19.50;98995.00;;;;2096194;28;20236;-47
2020/12/06 02:43:45;;;;;;;8.80;8.00;;;;;19.50;98995.00;;;;2095492;28;20224;-47
2020/12/06 02:44:45;;;;;;;8.83;8.13;;;;;19.50;98991.00;;;;2095804;28;20358;-46
2020/12/06 02:45:46;;;;;;;8.17;7.53;;;;;19.50;98985.00;;;;2096344;28;20229;-47
2020/12/06 02:46:46;;;;;;;8.23;7.53;;;;;19.50;98987.00;;;;2096347;28;20667;-46
2020/12/06 02:47:46;;;;;;;7.93;7.27;;;;;19.50;98987.00;;;;2096174;28;20911;-46
2020/12/06 02:48:47;;;;;;;8.63;7.97;;;;;19.50;98990.00;;;;2095637;28;20729;-46
2020/12/06 02:49:47;;;;;;;8.27;7.50;;;;;19.50;98987.00;;;;2096424;28;20271;-46
2020/12/06 02:50:47;;;;;;;8.77;8.07;;;;;19.50;98982.00;;;;2095944;28;20209;-46
2020/12/06 02:51:48;;;;;;;8.60;7.80;;;;;19.50;98981.00;;;;2093527;28;20221;-46
2020/12/06 02:52:48;;;;;;;8.50;7.77;;;;;19.50;98984.00;;;;2088099;28;20213;-46
2020/12/06 02:53:49;;;;;;;7.27;6.70;;;;;19.50;98959.00;;;;2087947;28;20224;-46
2020/12/06 02:54:49;;;;;;;8.63;7.93;;;;;19.50;98978.00;;;;2087689;28;20217;-46
2020/12/06 02:55:49;;;;;;;8.30;7.60;;;;;19.50;98983.00;;;;2094734;28;20225;-46
2020/12/06 02:56:49;;;;;;;7.90;7.20;;;;;19.50;98968.00;;;;2093317;28;20217;-46
2020/12/06 02:57:50;;;;;;;8.47;7.83;;;;;19.50;98970.00;;;;2092253;28;20271;-45
2020/12/06 02:58:50;;;;;;;9.00;8.20;;;;;19.50;98964.00;;;;2092599;28;20238;-46
2020/12/06 02:59:50;;;;;;;8.43;7.73;;;;;19.50;98968.00;;;;2091015;28;20220;-46
2020/12/06 03:00:51;;;;;;;9.13;8.07;;;;;19.50;98969.00;;;;2096109;28;20213;-46
2020/12/06 03:01:51;;;;;;;8.33;7.50;;;;;19.50;98980.00;;;;2096098;28;20240;-46
2020/12/06 03:02:51;;;;;;;9.00;8.30;;;;;19.50;98981.00;;;;2092874;28;20801;-46
2020/12/06 03:03:52;;;;;;;7.93;7.27;;;;;19.50;98979.00;;;;2103423;28;20708;-45
2020/12/06 03:04:52;;;;;;;11.30;7.70;;;;;19.50;98977.00;;;;2096949;28;20694;-46
2020/12/06 03:05:52;;;;;;;8.83;8.13;;;;;19.40;98973.00;;;;2092992;28;20409;-46
2020/12/06 03:06:53;;;;;;;8.23;7.53;;;;;19.50;98974.00;;;;2087435;28;20358;-46
2020/12/06 03:07:53;;;;;;;8.17;7.57;;;;;19.50;98970.00;;;;2090900;28;20306;-47
2020/12/06 03:08:53;;;;;;;7.90;7.20;;;;;19.40;98968.00;;;;2092829;28;20238;-46
2020/12/06 03:09:54;;;;;;;8.43;7.67;;;;;19.40;98970.00;;;;2088046;28;20682;-46
2020/12/06 03:10:55;;;;;;;10.53;7.70;;;;;19.40;98979.00;;;;2087617;28;20221;-47
2020/12/06 03:11:55;;;;;;;10.50;7.37;;;;;19.40;98987.00;;;;2091308;28;20231;-46
2020/12/06 03:12:55;;;;;;;8.73;7.93;;;;;19.40;98984.00;;;;2095992;28;20466;-48
2020/12/06 03:13:56;;;;;;;9.43;8.07;;;;;19.40;98994.00;;;;2096051;28;20570;-46
2020/12/06 03:14:56;;;;;;;8.90;8.20;;;;;19.40;98992.00;;;;2095503;28;20221;-45
2020/12/06 03:15:56;;;;;;;8.57;7.73;;;;;19.40;98990.00;;;;2096063;28;20222;-46
2020/12/06 03:16:57;;;;;;;8.43;7.73;;;;;19.40;99001.00;;;;2096083;28;20244;-46
2020/12/06 03:17:57;;;;;;;8.27;7.57;;;;;19.40;99002.00;;;;2095720;28;20220;-46
2020/12/06 03:18:57;;;;;;;9.00;7.50;;;;;19.40;99011.00;;;;2096205;28;20232;-46
2020/12/06 03:19:58;;;;;;;8.20;7.40;;;;;19.40;99006.00;;;;2096032;28;20216;-48
2020/12/06 03:20:58;;;;;;;8.03;7.40;;;;;19.40;99015.00;;;;2096063;28;20964;-46
2020/12/06 03:21:59;;;;;;;9.20;8.30;;;;;19.40;99008.00;;;;2095735;28;20666;-46
2020/12/06 03:22:59;;;;;;;8.43;7.73;;;;;19.40;99003.00;;;;2095909;28;20316;-46
2020/12/06 03:23:59;;;;;;;7.90;7.20;;;;;19.40;99007.00;;;;2096031;28;20224;-46
2020/12/06 03:25:00;;;;;;;8.73;7.90;;;;;19.40;99013.00;;;;2095418;28;20278;-47
2020/12/06 03:26:01;;;;;;;7.90;7.30;;;;;19.40;99011.00;;;;2092041;28;20217;-46
2020/12/06 03:27:01;;;;;;;8.17;7.47;;;;;19.40;99012.00;;;;2092221;28;20225;-46
2020/12/06 03:28:01;;;;;;;8.03;7.30;;;;;19.40;99019.00;;;;2091443;28;20232;-46
2020/12/06 03:29:02;;;;;;;8.37;7.63;;;;;19.40;99027.00;;;;2092250;28;20232;-46
2020/12/06 03:30:02;;;;;;;8.17;7.50;;;;;19.40;99022.00;;;;2096102;28;20296;-46
2020/12/06 03:31:02;;;;;;;8.00;7.40;;;;;19.40;99022.00;;;;2095822;28;20240;-47
2020/12/06 03:32:03;;;;;;;7.90;7.20;;;;;19.40;99011.00;;;;2091416;28;20314;-46
2020/12/06 03:33:03;;;;;;;9.37;8.20;;;;;19.40;98999.00;;;;2087708;28;20259;-47
2020/12/06 03:34:03;;;;;;;7.97;7.30;;;;;19.40;99009.00;;;;2087496;28;20221;-46
2020/12/06 03:35:04;;;;;;;8.60;7.90;;;;;19.40;99006.00;;;;2087036;28;20217;-47
2020/12/06 03:36:04;;;;;;;8.73;7.93;;;;;19.40;99019.00;;;;2087478;28;20293;-47
2020/12/06 03:37:04;;;;;;;8.47;7.77;;;;;19.40;99005.00;;;;2087134;28;20842;-48
2020/12/06 03:38:05;;;;;;;8.37;7.73;;;;;19.40;99009.00;;;;2087278;28;20230;-47
2020/12/06 03:39:05;;;;;;;8.13;7.30;;;;;19.40;99005.00;;;;2082259;28;20313;-46
2020/12/06 03:40:05;;;;;;;7.60;6.90;;;;;19.30;99009.00;;;;2087225;28;20221;-46
2020/12/06 03:41:06;;;;;;;7.97;7.37;;;;;19.30;99008.00;;;;2087465;28;20574;-46
2020/12/06 03:42:06;;;;;;;8.63;7.83;;;;;19.30;99003.00;;;;2083223;28;20205;-45
2020/12/06 03:43:06;;;;;;;8.80;8.00;;;;;19.30;98998.00;;;;2087531;28;20217;-47
2020/12/06 03:44:07;;;;;;;9.23;8.43;;;;;19.40;99003.00;;;;2087630;28;20752;-47
2020/12/06 03:45:07;;;;;;;7.90;7.30;;;;;19.40;99010.00;;;;2087068;28;20214;-46
2020/12/06 03:46:07;;;;;;;8.83;7.80;;;;;19.30;98997.00;;;;2086804;28;20214;-49
2020/12/06 03:47:08;;;;;;;8.23;7.53;;;;;19.30;99000.00;;;;2087511;28;20211;-47
2020/12/06 03:48:08;;;;;;;7.33;6.63;;;;;19.30;99006.00;;;;2087358;28;20293;-47
2020/12/06 03:49:08;;;;;;;8.33;7.57;;;;;19.30;99004.00;;;;2087353;28;20731;-47
2020/12/06 03:50:09;;;;;;;8.17;7.47;;;;;19.30;99002.00;;;;2087534;28;20701;-47
2020/12/06 03:51:09;;;;;;;7.70;7.00;;;;;19.30;99009.00;;;;2087212;28;20213;-46
2020/12/06 03:52:10;;;;;;;7.90;7.23;;;;;19.30;99007.00;;;;2086539;28;20214;-46
2020/12/06 03:53:10;;;;;;;8.43;7.73;;;;;19.30;99009.00;;;;2086870;28;20206;-46
2020/12/06 03:54:10;;;;;;;7.83;7.23;;;;;19.30;99003.00;;;;2087555;28;20740;-46
2020/12/06 03:55:11;;;;;;;8.60;7.90;;;;;19.30;99008.00;;;;2088866;28;20300;-46
2020/12/06 03:56:11;;;;;;;7.93;7.23;;;;;19.30;99009.00;;;;2091844;28;20205;-47
2020/12/06 03:57:11;;;;;;;7.97;7.37;;;;;19.30;99009.00;;;;2091826;28;20235;-46
2020/12/06 03:58:12;;;;;;;7.50;6.90;;;;;19.30;99008.00;;;;2089537;28;20217;-46
2020/12/06 03:59:12;;;;;;;8.30;7.60;;;;;19.30;99016.00;;;;2087681;28;20698;-46
2020/12/06 04:00:12;;;;;;;7.90;7.30;;;;;19.30;99002.00;;;;2087470;28;20714;-45
2020/12/06 04:01:13;;;;;;;7.60;6.90;;;;;19.30;99023.00;;;;2087330;28;20857;-45
2020/12/06 04:02:13;;;;;;;9.17;8.37;;;;;19.30;99015.00;;;;2086841;28;20210;-47
2020/12/06 04:03:14;;;;;;;8.27;7.57;;;;;19.30;99017.00;;;;2087008;28;20287;-46
2020/12/06 04:04:14;;;;;;;8.40;7.70;;;;;19.30;99021.00;;;;2087548;28;20222;-46
2020/12/06 04:05:19;;;;;;;8.07;7.37;;;;;19.30;99017.00;;;;2086793;28;20218;-46
2020/12/06 04:06:19;;;;;;;8.48;7.78;;;;;19.30;99009.00;;;;2087223;28;20232;-47
2020/12/06 04:07:19;;;;;;;8.73;7.93;;;;;19.30;99006.00;;;;2086793;28;20205;-47
2020/12/06 04:08:20;;;;;;;8.73;7.93;;;;;19.30;99001.00;;;;2087294;28;20206;-47
2020/12/06 04:09:21;;;;;;;9.07;8.13;;;;;19.30;98988.00;;;;2087257;28;20221;-46
2020/12/06 04:10:21;;;;;;;8.13;7.43;;;;;19.30;98991.00;;;;2086560;28;20260;-46
2020/12/06 04:11:21;;;;;;;9.10;8.30;;;;;19.20;98996.00;;;;2087447;28;20448;-46
2020/12/06 04:12:22;;;;;;;8.80;8.10;;;;;19.30;98987.00;;;;2087460;28;20213;-47
2020/12/06 04:13:22;;;;;;;9.50;8.70;;;;;19.20;98990.00;;;;2087495;28;20511;-46
2020/12/06 04:14:22;;;;;;;8.70;7.97;;;;;19.20;98975.00;;;;2087377;28;20309;-46
2020/12/06 04:15:23;;;;;;;9.07;8.27;;;;;19.20;98985.00;;;;2086790;28;20249;-47
2020/12/06 04:16:23;;;;;;;9.40;8.50;;;;;19.20;98978.00;;;;2087318;28;20240;-47
2020/12/06 04:17:23;;;;;;;8.80;8.00;;;;;19.20;98977.00;;;;2087184;28;20390;-46
2020/12/06 04:18:24;;;;;;;9.00;8.20;;;;;19.20;98987.00;;;;2087079;28;20217;-46
2020/12/06 04:19:24;;;;;;;9.33;8.60;;;;;19.20;98983.00;;;;2087577;28;20229;-46
2020/12/06 04:20:24;;;;;;;8.07;7.43;;;;;19.30;98987.00;;;;2087044;28;20229;-46
2020/12/06 04:21:25;;;;;;;9.33;8.53;;;;;19.20;98987.00;;;;2087143;28;20209;-46
2020/12/06 04:22:25;;;;;;;9.43;8.63;;;;;19.20;98986.00;;;;2086345;28;20283;-46
2020/12/06 04:23:25;;;;;;;9.13;8.40;;;;;19.20;98986.00;;;;2086653;28;20209;-46
2020/12/06 04:24:26;;;;;;;8.80;8.10;;;;;19.20;98975.00;;;;2087185;28;20233;-46
2020/12/06 04:25:26;;;;;;;8.87;8.07;;;;;19.20;98969.00;;;;2090547;28;20208;-47
2020/12/06 04:26:26;;;;;;;8.73;7.93;;;;;19.20;98956.00;;;;2091563;28;20203;-47
2020/12/06 04:27:27;;;;;;;8.87;8.17;;;;;19.20;98950.00;;;;2091256;28;20208;-46
2020/12/06 04:28:27;;;;;;;9.70;8.80;;;;;19.20;98945.00;;;;2087308;28;20230;-46
2020/12/06 04:29:27;;;;;;;9.77;8.93;;;;;19.20;98951.00;;;;2095244;28;20205;-46
2020/12/06 04:30:28;;;;;;;10.17;9.27;;;;;19.20;98951.00;;;;2095450;28;20203;-45
2020/12/06 04:31:28;;;;;;;9.53;8.73;;;;;19.20;98962.00;;;;2095514;28;20255;-48
2020/12/06 04:32:28;;;;;;;9.10;8.40;;;;;19.20;98967.00;;;;2087960;28;20209;-47
2020/12/06 04:33:29;;;;;;;9.43;8.63;;;;;19.10;98955.00;;;;2095581;28;20218;-47
2020/12/06 04:34:29;;;;;;;9.80;9.00;;;;;19.20;98952.00;;;;2095072;28;20201;-46
2020/12/06 04:35:29;;;;;;;9.23;8.30;;;;;19.20;98950.00;;;;2095384;28;20305;-46
2020/12/06 04:36:30;;;;;;;9.50;8.70;;;;;19.20;98950.00;;;;2095314;28;20215;-47
2020/12/06 04:37:30;;;;;;;9.77;8.97;;;;;19.20;98950.00;;;;2083625;28;20706;-48
2020/12/06 04:38:30;;;;;;;10.03;9.23;;;;;19.20;98944.00;;;;2093937;28;20283;-46
2020/12/06 04:39:31;;;;;;;9.20;8.50;;;;;19.20;98955.00;;;;2092574;28;20201;-46
2020/12/06 04:40:31;;;;;;;10.03;9.13;;;;;19.20;98945.00;;;;2091468;28;20198;-46
2020/12/06 04:41:31;;;;;;;9.73;8.90;;;;;19.20;98953.00;;;;2086837;28;20201;-46
2020/12/06 04:42:32;;;;;;;10.47;9.57;;;;;19.20;98959.00;;;;2084013;28;20217;-46
2020/12/06 04:43:32;;;;;;;9.07;8.37;;;;;19.20;98964.00;;;;2087215;28;20198;-45
2020/12/06 04:44:33;;;;;;;9.70;8.90;;;;;19.20;98964.00;;;;2085928;28;20209;-46
2020/12/06 04:45:33;;;;;;;9.73;8.93;;;;;19.20;98973.00;;;;2086490;28;20314;-47
2020/12/06 04:46:36;;;;;;;9.43;8.63;;;;;19.20;98974.00;;;;2086375;28;20221;-46
2020/12/06 04:47:56;;;;;;;10.13;9.23;;;;;19.20;98968.00;;;;2085775;28;20222;-45
2020/12/06 04:49:05;;;;;;;9.55;8.75;;;;;19.20;98962.00;;;;2089121;28;20228;-46
2020/12/06 04:50:05;;;;;;;10.23;8.63;;;;;19.10;98960.00;;;;2092927;28;20240;-47
2020/12/06 04:51:05;;;;;;;11.00;9.90;;;;;19.20;98966.00;;;;2086123;28;20328;-46
2020/12/06 04:52:06;;;;;;;10.30;9.40;;;;;19.10;98967.00;;;;2069967;28;20219;-46
2020/12/06 04:53:06;;;;;;;10.10;9.30;;;;;19.10;98968.00;;;;2077977;28;20683;-48
2020/12/06 04:54:07;;;;;;;10.13;9.23;;;;;19.10;98965.00;;;;2094481;28;20788;-46
2020/12/06 04:55:07;;;;;;;9.43;8.63;;;;;19.10;98959.00;;;;2094039;28;20224;-47
2020/12/06 04:56:08;;;;;;;10.10;9.20;;;;;19.10;98963.00;;;;2092689;28;20288;-47
2020/12/06 04:57:10;;;;;;;10.18;9.35;;;;;19.10;98960.00;;;;2093911;28;20284;-45
2020/12/06 04:58:10;;;;;;;10.18;9.30;;;;;19.10;98964.00;;;;2098406;28;20281;-45
2020/12/06 04:59:11;;;;;;;11.67;10.67;;;;;19.10;98964.00;;;;2085525;28;20312;-46
2020/12/06 05:00:11;;;;;;;10.47;9.57;;;;;19.10;98954.00;;;;2059750;28;20281;-45
2020/12/06 05:01:11;;;;;;;10.90;9.83;;;;;19.10;98959.00;;;;2085588;28;20689;-46
2020/12/06 05:02:12;;;;;;;11.10;10.10;;;;;19.10;98966.00;;;;2085474;28;20217;-47
2020/12/06 05:03:13;;;;;;;10.20;9.30;;;;;19.10;98962.00;;;;2077833;28;20746;-46